메인 페이지
METAR-TAF:

METAR-TAF

공항 :

모빌, 앨라배마, 미국

위도: 30-36-50N, 경도: 088-03-48W, 고도: 7m

현재 날씨관측

예보는 30분 전, 06:53시(UTC)에 발표되었습니다.
무풍
온도 23°C
습도 94%
기압 1013 hPa
시정: 16.1km
맑음

METAR: KBFM 220653Z AUTO 00000KT 10SM CLR 23/22 A2992 RMK AO2 SLP130 T02280222

시각: 02:23 (07:23 UTC)

예보

예보는 2 시간 3분 전, 05:20시(UTC)에 발표되었습니다.
예보 대상 시간: 22일 06시부터 23일 06시까지 (UTC)
여러 방향의 바람 4kt
시정: 10km
고도 2500ft 상공 구름 많음
고도 3500ft 상공 흐림
일시적
22일 08시부터 22일 12시까지 (UTC)
시정: 10km
고도 1500ft 상공 구름 많음
고도 2000ft 상공 흐림
22일 1200시부터 (UTC)
북북서13kt
시정: 10km
맑음
23일 0000시부터 (UTC)
북서6kt
시정: 10km
맑음

TAF: KBFM 220520Z 2206/2306 VRB04KT P6SM BKN025 OVC035 TEMPO 2208/2212 P6SM BKN015 OVC020 FM221200 34013KT P6SM SKC FM230000 32006KT P6SM SKC

4,000개 이상의 공항 관측 자료 및 예보 (METAR 및 TAF 보고).

지도상에서 검색 가능한 기상관측소가 노란 점과 빨간 점으로 표시되어 있습니다.

기상관측소 명을 보려면 표시 위로 마우스를 이동하세요.

날씨 관측과 예보를 보려면 클릭하세요.

지도 변경 : 확대하려면 엑스 표시가 있는 녹색 버튼, 축소하려면 빼기 표시가 있는 녹색 버튼, 다음 페이지의 지도를 보려면 녹색 화살표를 클릭하세요.


METAR-TAF: